sensor_id;sensor_type;location;lat;lon;timestamp;P1;durP1;ratioP1;P2;durP2;ratioP2
73136;SDS011;67767;45.636;11.756;2023-05-07T00:01:37;8.30;;;5.07;;
73136;SDS011;67767;45.636;11.756;2023-05-07T00:04:03;9.50;;;5.27;;
73136;SDS011;67767;45.636;11.756;2023-05-07T00:06:29;8.93;;;5.82;;
73136;SDS011;67767;45.636;11.756;2023-05-07T00:08:56;10.15;;;6.15;;
73136;SDS011;67767;45.636;11.756;2023-05-07T00:11:22;10.47;;;6.73;;
73136;SDS011;67767;45.636;11.756;2023-05-07T00:13:48;11.00;;;7.55;;
73136;SDS011;67767;45.636;11.756;2023-05-07T00:16:14;10.13;;;5.95;;
73136;SDS011;67767;45.636;11.756;2023-05-07T00:18:39;8.87;;;6.00;;
73136;SDS011;67767;45.636;11.756;2023-05-07T00:21:05;13.17;;;6.50;;
73136;SDS011;67767;45.636;11.756;2023-05-07T00:23:31;9.23;;;6.18;;
73136;SDS011;67767;45.636;11.756;2023-05-07T00:25:56;9.77;;;6.10;;
73136;SDS011;67767;45.636;11.756;2023-05-07T00:28:22;10.32;;;6.55;;
73136;SDS011;67767;45.636;11.756;2023-05-07T00:30:47;10.70;;;6.40;;
73136;SDS011;67767;45.636;11.756;2023-05-07T00:33:13;11.50;;;6.97;;
73136;SDS011;67767;45.636;11.756;2023-05-07T00:35:39;11.27;;;6.70;;
73136;SDS011;67767;45.636;11.756;2023-05-07T00:38:04;9.57;;;6.40;;
73136;SDS011;67767;45.636;11.756;2023-05-07T00:40:30;12.27;;;6.57;;
73136;SDS011;67767;45.636;11.756;2023-05-07T00:42:56;13.30;;;8.47;;
73136;SDS011;67767;45.636;11.756;2023-05-07T00:45:23;11.80;;;8.27;;
73136;SDS011;67767;45.636;11.756;2023-05-07T00:47:54;13.15;;;8.25;;
73136;SDS011;67767;45.636;11.756;2023-05-07T00:50:21;13.27;;;8.75;;
73136;SDS011;67767;45.636;11.756;2023-05-07T00:52:47;13.27;;;8.63;;
73136;SDS011;67767;45.636;11.756;2023-05-07T00:55:13;14.18;;;8.15;;
73136;SDS011;67767;45.636;11.756;2023-05-07T00:57:40;11.07;;;7.28;;
73136;SDS011;67767;45.636;11.756;2023-05-07T01:00:07;14.65;;;8.43;;
73136;SDS011;67767;45.636;11.756;2023-05-07T01:02:35;11.07;;;7.87;;
73136;SDS011;67767;45.636;11.756;2023-05-07T01:05:01;11.02;;;8.63;;
73136;SDS011;67767;45.636;11.756;2023-05-07T01:07:30;12.90;;;8.82;;
73136;SDS011;67767;45.636;11.756;2023-05-07T01:09:56;13.70;;;8.52;;
73136;SDS011;67767;45.636;11.756;2023-05-07T01:12:23;14.05;;;8.05;;
73136;SDS011;67767;45.636;11.756;2023-05-07T01:14:50;11.37;;;8.33;;
73136;SDS011;67767;45.636;11.756;2023-05-07T01:17:16;12.15;;;8.02;;
73136;SDS011;67767;45.636;11.756;2023-05-07T01:19:42;13.50;;;7.55;;
73136;SDS011;67767;45.636;11.756;2023-05-07T01:22:09;12.68;;;7.97;;
73136;SDS011;67767;45.636;11.756;2023-05-07T01:24:36;10.60;;;7.20;;
73136;SDS011;67767;45.636;11.756;2023-05-07T01:27:02;11.17;;;7.53;;
73136;SDS011;67767;45.636;11.756;2023-05-07T01:29:28;11.25;;;7.68;;
73136;SDS011;67767;45.636;11.756;2023-05-07T01:31:56;11.98;;;7.22;;
73136;SDS011;67767;45.636;11.756;2023-05-07T01:34:24;11.07;;;7.18;;
73136;SDS011;67767;45.636;11.756;2023-05-07T01:36:52;11.60;;;6.90;;
73136;SDS011;67767;45.636;11.756;2023-05-07T01:39:21;11.43;;;7.00;;
73136;SDS011;67767;45.636;11.756;2023-05-07T01:41:49;11.05;;;6.75;;
73136;SDS011;67767;45.636;11.756;2023-05-07T01:44:15;12.00;;;7.20;;
73136;SDS011;67767;45.636;11.756;2023-05-07T01:46:43;10.45;;;6.35;;
73136;SDS011;67767;45.636;11.756;2023-05-07T01:49:09;10.68;;;6.30;;
73136;SDS011;67767;45.636;11.756;2023-05-07T01:51:35;11.37;;;6.80;;
73136;SDS011;67767;45.636;11.756;2023-05-07T01:54:01;10.57;;;7.05;;
73136;SDS011;67767;45.636;11.756;2023-05-07T01:56:27;10.68;;;6.93;;
73136;SDS011;67767;45.636;11.756;2023-05-07T01:58:53;10.80;;;7.07;;
73136;SDS011;67767;45.636;11.756;2023-05-07T02:01:18;10.70;;;7.18;;
73136;SDS011;67767;45.636;11.756;2023-05-07T02:03:44;10.23;;;7.13;;
73136;SDS011;67767;45.636;11.756;2023-05-07T02:06:10;12.30;;;7.20;;
73136;SDS011;67767;45.636;11.756;2023-05-07T02:08:35;11.17;;;7.40;;
73136;SDS011;67767;45.636;11.756;2023-05-07T02:11:01;10.98;;;7.00;;
73136;SDS011;67767;45.636;11.756;2023-05-07T02:13:32;10.13;;;7.20;;
73136;SDS011;67767;45.636;11.756;2023-05-07T02:15:59;11.80;;;8.10;;
73136;SDS011;67767;45.636;11.756;2023-05-07T02:18:25;12.75;;;7.72;;
73136;SDS011;67767;45.636;11.756;2023-05-07T02:20:51;12.03;;;8.13;;
73136;SDS011;67767;45.636;11.756;2023-05-07T02:23:17;11.85;;;7.82;;
73136;SDS011;67767;45.636;11.756;2023-05-07T02:25:42;10.73;;;7.70;;
73136;SDS011;67767;45.636;11.756;2023-05-07T02:28:08;11.73;;;7.20;;
73136;SDS011;67767;45.636;11.756;2023-05-07T02:30:34;12.10;;;7.03;;
73136;SDS011;67767;45.636;11.756;2023-05-07T02:33:00;12.55;;;7.90;;
73136;SDS011;67767;45.636;11.756;2023-05-07T02:35:25;11.05;;;7.93;;
73136;SDS011;67767;45.636;11.756;2023-05-07T02:37:51;13.67;;;7.70;;
73136;SDS011;67767;45.636;11.756;2023-05-07T02:40:17;12.00;;;7.70;;
73136;SDS011;67767;45.636;11.756;2023-05-07T02:42:42;11.73;;;7.53;;
73136;SDS011;67767;45.636;11.756;2023-05-07T02:45:08;11.73;;;7.22;;
73136;SDS011;67767;45.636;11.756;2023-05-07T02:47:34;11.50;;;7.17;;
73136;SDS011;67767;45.636;11.756;2023-05-07T02:50:00;11.25;;;7.85;;
73136;SDS011;67767;45.636;11.756;2023-05-07T02:52:26;11.40;;;7.23;;
73136;SDS011;67767;45.636;11.756;2023-05-07T02:54:52;11.10;;;7.17;;
73136;SDS011;67767;45.636;11.756;2023-05-07T02:57:17;11.37;;;7.77;;
73136;SDS011;67767;45.636;11.756;2023-05-07T02:59:43;13.02;;;8.43;;
73136;SDS011;67767;45.636;11.756;2023-05-07T03:02:08;13.53;;;8.50;;
73136;SDS011;67767;45.636;11.756;2023-05-07T03:04:35;12.93;;;8.27;;
73136;SDS011;67767;45.636;11.756;2023-05-07T03:07:00;12.35;;;8.07;;
73136;SDS011;67767;45.636;11.756;2023-05-07T03:09:26;13.33;;;8.17;;
73136;SDS011;67767;45.636;11.756;2023-05-07T03:11:52;12.40;;;8.20;;
73136;SDS011;67767;45.636;11.756;2023-05-07T03:14:17;12.90;;;8.37;;
73136;SDS011;67767;45.636;11.756;2023-05-07T03:16:43;14.25;;;8.48;;
73136;SDS011;67767;45.636;11.756;2023-05-07T03:19:09;11.10;;;7.87;;
73136;SDS011;67767;45.636;11.756;2023-05-07T03:21:34;12.07;;;7.77;;
73136;SDS011;67767;45.636;11.756;2023-05-07T03:24:00;12.40;;;7.88;;
73136;SDS011;67767;45.636;11.756;2023-05-07T03:26:26;14.10;;;8.37;;
73136;SDS011;67767;45.636;11.756;2023-05-07T03:28:51;11.75;;;8.45;;
73136;SDS011;67767;45.636;11.756;2023-05-07T03:31:17;13.40;;;8.30;;
73136;SDS011;67767;45.636;11.756;2023-05-07T03:33:53;15.05;;;9.15;;
73136;SDS011;67767;45.636;11.756;2023-05-07T03:36:20;14.15;;;9.20;;
73136;SDS011;67767;45.636;11.756;2023-05-07T03:38:47;13.48;;;8.40;;
73136;SDS011;67767;45.636;11.756;2023-05-07T03:41:13;13.63;;;9.32;;
73136;SDS011;67767;45.636;11.756;2023-05-07T03:43:39;13.90;;;9.30;;
73136;SDS011;67767;45.636;11.756;2023-05-07T03:46:05;14.85;;;8.98;;
73136;SDS011;67767;45.636;11.756;2023-05-07T03:48:30;12.93;;;8.93;;
73136;SDS011;67767;45.636;11.756;2023-05-07T03:50:59;15.02;;;9.35;;
73136;SDS011;67767;45.636;11.756;2023-05-07T03:53:24;16.27;;;9.52;;
73136;SDS011;67767;45.636;11.756;2023-05-07T03:55:50;15.50;;;9.47;;
73136;SDS011;67767;45.636;11.756;2023-05-07T03:58:16;15.27;;;10.18;;
73136;SDS011;67767;45.636;11.756;2023-05-07T04:00:42;15.37;;;10.00;;
73136;SDS011;67767;45.636;11.756;2023-05-07T04:03:08;15.57;;;9.70;;
73136;SDS011;67767;45.636;11.756;2023-05-07T04:05:33;17.45;;;11.07;;
73136;SDS011;67767;45.636;11.756;2023-05-07T04:07:59;14.63;;;9.97;;
73136;SDS011;67767;45.636;11.756;2023-05-07T04:10:26;16.55;;;9.75;;
73136;SDS011;67767;45.636;11.756;2023-05-07T04:12:53;17.95;;;11.07;;
73136;SDS011;67767;45.636;11.756;2023-05-07T04:15:18;18.43;;;11.17;;
73136;SDS011;67767;45.636;11.756;2023-05-07T04:17:44;26.15;;;15.10;;
73136;SDS011;67767;45.636;11.756;2023-05-07T04:20:12;132.97;;;46.33;;
73136;SDS011;67767;45.636;11.756;2023-05-07T04:22:41;56.00;;;22.42;;
73136;SDS011;67767;45.636;11.756;2023-05-07T04:25:08;33.78;;;17.70;;
73136;SDS011;67767;45.636;11.756;2023-05-07T04:27:39;70.93;;;27.83;;
73136;SDS011;67767;45.636;11.756;2023-05-07T04:30:05;61.23;;;26.13;;
73136;SDS011;67767;45.636;11.756;2023-05-07T04:32:31;192.70;;;60.85;;
73136;SDS011;67767;45.636;11.756;2023-05-07T04:34:57;361.20;;;122.30;;
73136;SDS011;67767;45.636;11.756;2023-05-07T04:37:22;283.40;;;94.97;;
73136;SDS011;67767;45.636;11.756;2023-05-07T04:39:48;89.03;;;34.13;;
73136;SDS011;67767;45.636;11.756;2023-05-07T04:42:14;50.45;;;21.08;;
73136;SDS011;67767;45.636;11.756;2023-05-07T04:44:41;35.95;;;17.98;;
73136;SDS011;67767;45.636;11.756;2023-05-07T04:47:06;29.10;;;15.13;;
73136;SDS011;67767;45.636;11.756;2023-05-07T04:49:32;22.25;;;12.05;;
73136;SDS011;67767;45.636;11.756;2023-05-07T04:51:58;17.57;;;10.63;;
73136;SDS011;67767;45.636;11.756;2023-05-07T04:54:23;14.53;;;10.47;;
73136;SDS011;67767;45.636;11.756;2023-05-07T04:56:50;18.55;;;10.65;;
73136;SDS011;67767;45.636;11.756;2023-05-07T04:59:15;15.07;;;10.45;;
73136;SDS011;67767;45.636;11.756;2023-05-07T05:01:41;14.80;;;9.47;;
73136;SDS011;67767;45.636;11.756;2023-05-07T05:04:07;15.43;;;10.45;;
73136;SDS011;67767;45.636;11.756;2023-05-07T05:06:32;16.80;;;10.70;;
73136;SDS011;67767;45.636;11.756;2023-05-07T05:08:58;18.00;;;10.52;;
73136;SDS011;67767;45.636;11.756;2023-05-07T05:11:24;28.57;;;13.83;;
73136;SDS011;67767;45.636;11.756;2023-05-07T05:13:49;30.83;;;15.43;;
73136;SDS011;67767;45.636;11.756;2023-05-07T05:16:15;32.30;;;14.90;;
73136;SDS011;67767;45.636;11.756;2023-05-07T05:18:41;29.23;;;13.88;;
73136;SDS011;67767;45.636;11.756;2023-05-07T05:21:06;23.67;;;12.20;;
73136;SDS011;67767;45.636;11.756;2023-05-07T05:23:32;20.40;;;11.53;;
73136;SDS011;67767;45.636;11.756;2023-05-07T05:25:58;18.73;;;11.63;;
73136;SDS011;67767;45.636;11.756;2023-05-07T05:28:24;16.75;;;11.25;;
73136;SDS011;67767;45.636;11.756;2023-05-07T05:30:50;17.77;;;11.67;;
73136;SDS011;67767;45.636;11.756;2023-05-07T05:33:15;17.55;;;12.32;;
73136;SDS011;67767;45.636;11.756;2023-05-07T05:35:41;19.52;;;12.68;;
73136;SDS011;67767;45.636;11.756;2023-05-07T05:38:07;19.33;;;12.40;;
73136;SDS011;67767;45.636;11.756;2023-05-07T05:40:33;19.38;;;12.73;;
73136;SDS011;67767;45.636;11.756;2023-05-07T05:42:59;17.63;;;11.80;;
73136;SDS011;67767;45.636;11.756;2023-05-07T05:45:25;18.35;;;12.13;;
73136;SDS011;67767;45.636;11.756;2023-05-07T05:47:50;17.23;;;11.50;;
73136;SDS011;67767;45.636;11.756;2023-05-07T05:50:16;15.10;;;11.17;;
73136;SDS011;67767;45.636;11.756;2023-05-07T05:52:42;16.35;;;11.38;;
73136;SDS011;67767;45.636;11.756;2023-05-07T05:55:08;16.92;;;11.50;;
73136;SDS011;67767;45.636;11.756;2023-05-07T05:57:34;15.30;;;10.67;;
73136;SDS011;67767;45.636;11.756;2023-05-07T06:00:00;14.90;;;10.98;;
73136;SDS011;67767;45.636;11.756;2023-05-07T06:02:27;14.85;;;10.30;;
73136;SDS011;67767;45.636;11.756;2023-05-07T06:04:53;15.90;;;9.83;;
73136;SDS011;67767;45.636;11.756;2023-05-07T06:07:18;13.48;;;9.65;;
73136;SDS011;67767;45.636;11.756;2023-05-07T06:09:44;13.97;;;9.53;;
73136;SDS011;67767;45.636;11.756;2023-05-07T06:12:10;16.05;;;10.10;;
73136;SDS011;67767;45.636;11.756;2023-05-07T06:14:36;14.80;;;9.57;;
73136;SDS011;67767;45.636;11.756;2023-05-07T06:17:02;13.70;;;9.60;;
73136;SDS011;67767;45.636;11.756;2023-05-07T06:19:27;12.75;;;9.73;;
73136;SDS011;67767;45.636;11.756;2023-05-07T06:21:53;13.90;;;9.37;;
73136;SDS011;67767;45.636;11.756;2023-05-07T06:24:21;11.50;;;8.82;;
73136;SDS011;67767;45.636;11.756;2023-05-07T06:26:47;14.02;;;9.88;;
73136;SDS011;67767;45.636;11.756;2023-05-07T06:29:13;15.80;;;9.73;;
73136;SDS011;67767;45.636;11.756;2023-05-07T06:31:39;12.23;;;8.82;;
73136;SDS011;67767;45.636;11.756;2023-05-07T06:34:04;14.82;;;9.60;;
73136;SDS011;67767;45.636;11.756;2023-05-07T06:36:30;14.67;;;9.10;;
73136;SDS011;67767;45.636;11.756;2023-05-07T06:38:56;12.63;;;8.25;;
73136;SDS011;67767;45.636;11.756;2023-05-07T06:41:21;10.07;;;7.80;;
73136;SDS011;67767;45.636;11.756;2023-05-07T06:43:47;12.48;;;8.10;;
73136;SDS011;67767;45.636;11.756;2023-05-07T06:46:13;11.13;;;7.67;;
73136;SDS011;67767;45.636;11.756;2023-05-07T06:48:39;12.43;;;8.18;;
73136;SDS011;67767;45.636;11.756;2023-05-07T06:51:04;9.20;;;5.83;;
73136;SDS011;67767;45.636;11.756;2023-05-07T06:53:30;10.88;;;7.07;;
73136;SDS011;67767;45.636;11.756;2023-05-07T06:55:56;13.13;;;7.33;;
73136;SDS011;67767;45.636;11.756;2023-05-07T06:58:22;9.32;;;6.15;;
73136;SDS011;67767;45.636;11.756;2023-05-07T07:00:47;9.17;;;5.60;;
73136;SDS011;67767;45.636;11.756;2023-05-07T07:03:13;8.07;;;5.68;;
73136;SDS011;67767;45.636;11.756;2023-05-07T07:05:42;9.35;;;5.80;;
73136;SDS011;67767;45.636;11.756;2023-05-07T07:08:08;8.98;;;5.72;;
73136;SDS011;67767;45.636;11.756;2023-05-07T07:10:34;9.50;;;6.00;;
73136;SDS011;67767;45.636;11.756;2023-05-07T07:13:00;7.38;;;4.43;;
73136;SDS011;67767;45.636;11.756;2023-05-07T07:15:26;8.43;;;4.67;;
73136;SDS011;67767;45.636;11.756;2023-05-07T07:17:51;8.73;;;4.60;;
73136;SDS011;67767;45.636;11.756;2023-05-07T07:20:17;8.43;;;4.73;;
73136;SDS011;67767;45.636;11.756;2023-05-07T07:22:43;6.85;;;4.20;;
73136;SDS011;67767;45.636;11.756;2023-05-07T07:25:09;8.23;;;4.63;;
73136;SDS011;67767;45.636;11.756;2023-05-07T07:27:36;13.48;;;5.78;;
73136;SDS011;67767;45.636;11.756;2023-05-07T07:30:02;12.52;;;5.80;;
73136;SDS011;67767;45.636;11.756;2023-05-07T07:32:28;8.50;;;5.32;;
73136;SDS011;67767;45.636;11.756;2023-05-07T07:34:53;8.80;;;5.40;;
73136;SDS011;67767;45.636;11.756;2023-05-07T07:37:19;8.40;;;5.72;;
73136;SDS011;67767;45.636;11.756;2023-05-07T07:39:45;9.77;;;5.43;;
73136;SDS011;67767;45.636;11.756;2023-05-07T07:42:10;7.85;;;4.85;;
73136;SDS011;67767;45.636;11.756;2023-05-07T07:44:36;7.97;;;4.93;;
73136;SDS011;67767;45.636;11.756;2023-05-07T07:47:02;11.00;;;5.43;;
73136;SDS011;67767;45.636;11.756;2023-05-07T07:49:27;7.97;;;4.40;;
73136;SDS011;67767;45.636;11.756;2023-05-07T07:51:53;14.43;;;4.30;;
73136;SDS011;67767;45.636;11.756;2023-05-07T07:54:19;6.80;;;4.40;;
73136;SDS011;67767;45.636;11.756;2023-05-07T07:56:45;8.35;;;4.30;;
73136;SDS011;67767;45.636;11.756;2023-05-07T07:59:10;6.67;;;4.10;;
73136;SDS011;67767;45.636;11.756;2023-05-07T08:01:36;9.43;;;4.85;;
73136;SDS011;67767;45.636;11.756;2023-05-07T08:04:02;7.00;;;4.50;;
73136;SDS011;67767;45.636;11.756;2023-05-07T08:06:30;9.55;;;4.90;;
73136;SDS011;67767;45.636;11.756;2023-05-07T08:08:56;8.40;;;4.70;;
73136;SDS011;67767;45.636;11.756;2023-05-07T08:11:22;7.87;;;5.03;;
73136;SDS011;67767;45.636;11.756;2023-05-07T08:13:47;8.67;;;4.90;;
73136;SDS011;67767;45.636;11.756;2023-05-07T08:16:13;8.65;;;5.00;;
73136;SDS011;67767;45.636;11.756;2023-05-07T08:18:39;9.10;;;4.38;;
73136;SDS011;67767;45.636;11.756;2023-05-07T08:21:05;7.43;;;4.17;;
73136;SDS011;67767;45.636;11.756;2023-05-07T08:23:30;7.32;;;4.18;;
73136;SDS011;67767;45.636;11.756;2023-05-07T08:25:56;7.77;;;4.40;;
73136;SDS011;67767;45.636;11.756;2023-05-07T08:28:22;8.68;;;6.65;;
73136;SDS011;67767;45.636;11.756;2023-05-07T08:30:49;8.50;;;4.72;;
73136;SDS011;67767;45.636;11.756;2023-05-07T08:33:15;8.13;;;5.00;;
73136;SDS011;67767;45.636;11.756;2023-05-07T08:35:41;7.85;;;4.38;;
73136;SDS011;67767;45.636;11.756;2023-05-07T08:38:07;8.60;;;4.93;;
73136;SDS011;67767;45.636;11.756;2023-05-07T08:40:36;7.63;;;4.90;;
73136;SDS011;67767;45.636;11.756;2023-05-07T08:43:05;7.20;;;4.50;;
73136;SDS011;67767;45.636;11.756;2023-05-07T08:45:32;8.00;;;4.00;;
73136;SDS011;67767;45.636;11.756;2023-05-07T08:48:00;7.67;;;4.10;;
73136;SDS011;67767;45.636;11.756;2023-05-07T08:50:28;8.65;;;4.45;;
73136;SDS011;67767;45.636;11.756;2023-05-07T08:52:55;7.97;;;3.83;;
73136;SDS011;67767;45.636;11.756;2023-05-07T08:55:22;8.98;;;4.80;;
73136;SDS011;67767;45.636;11.756;2023-05-07T08:57:48;6.85;;;4.07;;
73136;SDS011;67767;45.636;11.756;2023-05-07T09:00:15;5.83;;;3.60;;
73136;SDS011;67767;45.636;11.756;2023-05-07T09:02:41;5.20;;;3.10;;
73136;SDS011;67767;45.636;11.756;2023-05-07T09:05:07;6.43;;;3.50;;
73136;SDS011;67767;45.636;11.756;2023-05-07T09:07:33;7.68;;;3.60;;
73136;SDS011;67767;45.636;11.756;2023-05-07T09:10:00;7.20;;;4.03;;
73136;SDS011;67767;45.636;11.756;2023-05-07T09:12:30;8.18;;;4.72;;
73136;SDS011;67767;45.636;11.756;2023-05-07T09:14:56;9.10;;;5.25;;
73136;SDS011;67767;45.636;11.756;2023-05-07T09:17:23;10.32;;;5.25;;
73136;SDS011;67767;45.636;11.756;2023-05-07T09:19:49;8.17;;;4.20;;
73136;SDS011;67767;45.636;11.756;2023-05-07T09:22:15;8.32;;;4.50;;
73136;SDS011;67767;45.636;11.756;2023-05-07T09:24:41;9.60;;;4.18;;
73136;SDS011;67767;45.636;11.756;2023-05-07T09:27:15;8.37;;;4.80;;
73136;SDS011;67767;45.636;11.756;2023-05-07T09:29:43;7.22;;;4.60;;
73136;SDS011;67767;45.636;11.756;2023-05-07T09:32:09;10.07;;;4.60;;
73136;SDS011;67767;45.636;11.756;2023-05-07T09:34:34;7.65;;;4.43;;
73136;SDS011;67767;45.636;11.756;2023-05-07T09:37:01;11.30;;;5.80;;
73136;SDS011;67767;45.636;11.756;2023-05-07T09:39:40;7.18;;;3.90;;
73136;SDS011;67767;45.636;11.756;2023-05-07T09:42:10;7.43;;;4.10;;
73136;SDS011;67767;45.636;11.756;2023-05-07T09:44:36;8.07;;;4.53;;
73136;SDS011;67767;45.636;11.756;2023-05-07T09:47:06;7.22;;;4.50;;
73136;SDS011;67767;45.636;11.756;2023-05-07T09:49:36;10.63;;;4.80;;
73136;SDS011;67767;45.636;11.756;2023-05-07T09:52:03;8.50;;;4.80;;
73136;SDS011;67767;45.636;11.756;2023-05-07T09:54:36;8.70;;;4.57;;
73136;SDS011;67767;45.636;11.756;2023-05-07T09:57:05;7.35;;;4.22;;
73136;SDS011;67767;45.636;11.756;2023-05-07T09:59:32;8.30;;;4.78;;
73136;SDS011;67767;45.636;11.756;2023-05-07T10:02:00;8.10;;;4.50;;
73136;SDS011;67767;45.636;11.756;2023-05-07T10:04:27;7.55;;;4.65;;
73136;SDS011;67767;45.636;11.756;2023-05-07T10:06:54;10.35;;;4.85;;
73136;SDS011;67767;45.636;11.756;2023-05-07T10:09:20;8.13;;;5.18;;
73136;SDS011;67767;45.636;11.756;2023-05-07T10:11:48;7.47;;;4.90;;
73136;SDS011;67767;45.636;11.756;2023-05-07T10:14:15;7.43;;;4.80;;
73136;SDS011;67767;45.636;11.756;2023-05-07T10:16:41;8.38;;;5.43;;
73136;SDS011;67767;45.636;11.756;2023-05-07T10:19:07;7.30;;;5.20;;
73136;SDS011;67767;45.636;11.756;2023-05-07T10:21:37;9.25;;;6.70;;
73136;SDS011;67767;45.636;11.756;2023-05-07T10:24:04;10.05;;;5.45;;
73136;SDS011;67767;45.636;11.756;2023-05-07T10:26:38;7.87;;;5.57;;
73136;SDS011;67767;45.636;11.756;2023-05-07T10:29:11;8.63;;;6.05;;
73136;SDS011;67767;45.636;11.756;2023-05-07T10:34:26;8.82;;;5.15;;
73136;SDS011;67767;45.636;11.756;2023-05-07T10:36:57;9.23;;;5.65;;
73136;SDS011;67767;45.636;11.756;2023-05-07T10:39:23;7.67;;;5.23;;
73136;SDS011;67767;45.636;11.756;2023-05-07T10:41:49;8.98;;;5.25;;
73136;SDS011;67767;45.636;11.756;2023-05-07T10:44:30;8.75;;;5.40;;
73136;SDS011;67767;45.636;11.756;2023-05-07T10:50:20;9.27;;;5.78;;
73136;SDS011;67767;45.636;11.756;2023-05-07T10:52:55;9.90;;;5.50;;
73136;SDS011;67767;45.636;11.756;2023-05-07T10:55:41;11.00;;;6.25;;
73136;SDS011;67767;45.636;11.756;2023-05-07T11:00:49;8.70;;;5.22;;
73136;SDS011;67767;45.636;11.756;2023-05-07T11:03:15;11.02;;;5.65;;
73136;SDS011;67767;45.636;11.756;2023-05-07T11:05:41;9.07;;;5.77;;
73136;SDS011;67767;45.636;11.756;2023-05-07T11:08:07;7.32;;;4.97;;
73136;SDS011;67767;45.636;11.756;2023-05-07T11:16:17;11.52;;;5.90;;
73136;SDS011;67767;45.636;11.756;2023-05-07T11:18:50;9.03;;;5.80;;
73136;SDS011;67767;45.636;11.756;2023-05-07T11:24:13;10.25;;;7.07;;
73136;SDS011;67767;45.636;11.756;2023-05-07T11:26:49;12.90;;;8.20;;
73136;SDS011;67767;45.636;11.756;2023-05-07T11:29:16;12.20;;;8.25;;
73136;SDS011;67767;45.636;11.756;2023-05-07T11:31:44;13.30;;;9.40;;
73136;SDS011;67767;45.636;11.756;2023-05-07T11:34:14;12.48;;;8.07;;
73136;SDS011;67767;45.636;11.756;2023-05-07T11:36:45;15.38;;;9.40;;
73136;SDS011;67767;45.636;11.756;2023-05-07T11:41:54;11.63;;;7.65;;
73136;SDS011;67767;45.636;11.756;2023-05-07T11:44:20;13.93;;;8.60;;
73136;SDS011;67767;45.636;11.756;2023-05-07T11:46:46;12.52;;;10.30;;
73136;SDS011;67767;45.636;11.756;2023-05-07T11:49:11;11.60;;;9.07;;
73136;SDS011;67767;45.636;11.756;2023-05-07T11:51:37;12.07;;;8.80;;
73136;SDS011;67767;45.636;11.756;2023-05-07T11:54:04;12.80;;;10.10;;
73136;SDS011;67767;45.636;11.756;2023-05-07T11:56:34;12.37;;;9.53;;
73136;SDS011;67767;45.636;11.756;2023-05-07T11:59:00;13.40;;;9.45;;
73136;SDS011;67767;45.636;11.756;2023-05-07T12:01:26;13.15;;;9.60;;
73136;SDS011;67767;45.636;11.756;2023-05-07T12:03:51;11.53;;;8.53;;
73136;SDS011;67767;45.636;11.756;2023-05-07T12:06:17;11.82;;;9.50;;
73136;SDS011;67767;45.636;11.756;2023-05-07T12:08:44;10.70;;;8.50;;
73136;SDS011;67767;45.636;11.756;2023-05-07T12:11:14;11.50;;;8.80;;
73136;SDS011;67767;45.636;11.756;2023-05-07T12:13:42;13.27;;;9.30;;
73136;SDS011;67767;45.636;11.756;2023-05-07T12:16:08;11.38;;;8.40;;
73136;SDS011;67767;45.636;11.756;2023-05-07T12:18:35;12.10;;;8.85;;
73136;SDS011;67767;45.636;11.756;2023-05-07T12:21:01;9.95;;;8.10;;
73136;SDS011;67767;45.636;11.756;2023-05-07T12:23:29;10.18;;;8.50;;
73136;SDS011;67767;45.636;11.756;2023-05-07T12:25:55;12.20;;;8.57;;
73136;SDS011;67767;45.636;11.756;2023-05-07T12:28:20;11.35;;;8.38;;
73136;SDS011;67767;45.636;11.756;2023-05-07T12:30:47;11.23;;;6.90;;
73136;SDS011;67767;45.636;11.756;2023-05-07T12:33:17;10.15;;;7.43;;
73136;SDS011;67767;45.636;11.756;2023-05-07T12:35:44;9.77;;;7.95;;
73136;SDS011;67767;45.636;11.756;2023-05-07T12:38:13;10.60;;;8.53;;
73136;SDS011;67767;45.636;11.756;2023-05-07T12:40:41;13.47;;;10.07;;
73136;SDS011;67767;45.636;11.756;2023-05-07T12:43:08;10.35;;;7.60;;
73136;SDS011;67767;45.636;11.756;2023-05-07T12:45:41;11.02;;;7.03;;
73136;SDS011;67767;45.636;11.756;2023-05-07T12:48:09;9.52;;;7.03;;
73136;SDS011;67767;45.636;11.756;2023-05-07T12:50:35;11.57;;;7.90;;
73136;SDS011;67767;45.636;11.756;2023-05-07T12:53:05;9.37;;;6.87;;
73136;SDS011;67767;45.636;11.756;2023-05-07T12:55:34;9.90;;;7.15;;
73136;SDS011;67767;45.636;11.756;2023-05-07T12:58:16;9.82;;;6.57;;
73136;SDS011;67767;45.636;11.756;2023-05-07T13:00:42;10.23;;;7.78;;
73136;SDS011;67767;45.636;11.756;2023-05-07T13:03:08;11.60;;;8.37;;
73136;SDS011;67767;45.636;11.756;2023-05-07T13:05:34;10.27;;;8.55;;
73136;SDS011;67767;45.636;11.756;2023-05-07T13:08:00;11.20;;;8.75;;
73136;SDS011;67767;45.636;11.756;2023-05-07T13:10:26;7.97;;;6.20;;
73136;SDS011;67767;45.636;11.756;2023-05-07T13:12:53;8.63;;;5.97;;
73136;SDS011;67767;45.636;11.756;2023-05-07T13:15:18;8.70;;;5.80;;
73136;SDS011;67767;45.636;11.756;2023-05-07T13:17:44;9.45;;;6.22;;
73136;SDS011;67767;45.636;11.756;2023-05-07T13:20:10;8.37;;;6.33;;
73136;SDS011;67767;45.636;11.756;2023-05-07T13:22:37;7.32;;;5.78;;
73136;SDS011;67767;45.636;11.756;2023-05-07T13:25:04;9.15;;;6.13;;
73136;SDS011;67767;45.636;11.756;2023-05-07T13:27:30;10.87;;;7.10;;
73136;SDS011;67767;45.636;11.756;2023-05-07T13:29:56;8.48;;;6.93;;
73136;SDS011;67767;45.636;11.756;2023-05-07T13:32:21;11.90;;;7.82;;
73136;SDS011;67767;45.636;11.756;2023-05-07T13:34:47;11.67;;;7.97;;
73136;SDS011;67767;45.636;11.756;2023-05-07T13:37:13;11.32;;;7.32;;
73136;SDS011;67767;45.636;11.756;2023-05-07T13:39:39;10.13;;;7.30;;
73136;SDS011;67767;45.636;11.756;2023-05-07T13:42:05;11.60;;;6.67;;
73136;SDS011;67767;45.636;11.756;2023-05-07T13:44:31;9.55;;;6.95;;
73136;SDS011;67767;45.636;11.756;2023-05-07T13:46:57;8.73;;;6.40;;
73136;SDS011;67767;45.636;11.756;2023-05-07T13:49:23;8.90;;;7.10;;
73136;SDS011;67767;45.636;11.756;2023-05-07T13:51:49;8.52;;;6.75;;
73136;SDS011;67767;45.636;11.756;2023-05-07T13:54:14;10.73;;;6.57;;
73136;SDS011;67767;45.636;11.756;2023-05-07T13:56:40;11.10;;;7.13;;
73136;SDS011;67767;45.636;11.756;2023-05-07T13:59:06;10.30;;;7.65;;
73136;SDS011;67767;45.636;11.756;2023-05-07T14:01:32;10.03;;;8.47;;
73136;SDS011;67767;45.636;11.756;2023-05-07T14:03:58;11.05;;;8.07;;
73136;SDS011;67767;45.636;11.756;2023-05-07T14:06:24;10.52;;;7.80;;
73136;SDS011;67767;45.636;11.756;2023-05-07T14:08:50;10.80;;;7.60;;
73136;SDS011;67767;45.636;11.756;2023-05-07T14:11:16;9.70;;;7.80;;
73136;SDS011;67767;45.636;11.756;2023-05-07T14:13:41;12.05;;;9.15;;
73136;SDS011;67767;45.636;11.756;2023-05-07T14:16:07;10.97;;;7.53;;
73136;SDS011;67767;45.636;11.756;2023-05-07T14:18:33;10.40;;;8.52;;
73136;SDS011;67767;45.636;11.756;2023-05-07T14:21:00;10.80;;;8.00;;
73136;SDS011;67767;45.636;11.756;2023-05-07T14:23:25;10.38;;;7.78;;
73136;SDS011;67767;45.636;11.756;2023-05-07T14:25:51;10.90;;;7.40;;
73136;SDS011;67767;45.636;11.756;2023-05-07T14:28:18;11.45;;;8.25;;
73136;SDS011;67767;45.636;11.756;2023-05-07T14:30:44;8.52;;;6.40;;
73136;SDS011;67767;45.636;11.756;2023-05-07T14:33:09;10.60;;;6.80;;
73136;SDS011;67767;45.636;11.756;2023-05-07T14:35:35;10.93;;;7.40;;
73136;SDS011;67767;45.636;11.756;2023-05-07T14:38:01;10.75;;;8.18;;
73136;SDS011;67767;45.636;11.756;2023-05-07T14:40:27;12.53;;;8.53;;